sensor_id;sensor_type;location;lat;lon;timestamp;P1;durP1;ratioP1;P2;durP2;ratioP2
18140;SDS011;9196;49.194;12.526;2023-06-10T00:00:19;7.00;;;5.73;;
18140;SDS011;9196;49.194;12.526;2023-06-10T00:02:46;8.60;;;6.20;;
18140;SDS011;9196;49.194;12.526;2023-06-10T00:05:13;7.00;;;6.40;;
18140;SDS011;9196;49.194;12.526;2023-06-10T00:07:42;6.13;;;5.70;;
18140;SDS011;9196;49.194;12.526;2023-06-10T00:10:11;6.00;;;5.50;;
18140;SDS011;9196;49.194;12.526;2023-06-10T00:12:38;5.33;;;4.93;;
18140;SDS011;9196;49.194;12.526;2023-06-10T00:15:05;7.70;;;6.40;;
18140;SDS011;9196;49.194;12.526;2023-06-10T00:17:33;5.20;;;4.70;;
18140;SDS011;9196;49.194;12.526;2023-06-10T00:20:04;6.03;;;5.53;;
18140;SDS011;9196;49.194;12.526;2023-06-10T00:22:34;6.20;;;5.63;;
18140;SDS011;9196;49.194;12.526;2023-06-10T00:25:02;6.83;;;6.23;;
18140;SDS011;9196;49.194;12.526;2023-06-10T00:27:30;5.80;;;5.40;;
18140;SDS011;9196;49.194;12.526;2023-06-10T00:30:00;6.57;;;5.17;;
18140;SDS011;9196;49.194;12.526;2023-06-10T00:32:27;6.33;;;5.83;;
18140;SDS011;9196;49.194;12.526;2023-06-10T00:34:54;5.70;;;5.20;;
18140;SDS011;9196;49.194;12.526;2023-06-10T00:37:20;8.43;;;5.47;;
18140;SDS011;9196;49.194;12.526;2023-06-10T00:39:47;6.23;;;5.77;;
18140;SDS011;9196;49.194;12.526;2023-06-10T00:42:15;5.30;;;4.90;;
18140;SDS011;9196;49.194;12.526;2023-06-10T00:44:42;5.70;;;5.30;;
18140;SDS011;9196;49.194;12.526;2023-06-10T00:47:09;8.83;;;5.07;;
18140;SDS011;9196;49.194;12.526;2023-06-10T00:49:36;6.70;;;6.10;;
18140;SDS011;9196;49.194;12.526;2023-06-10T00:52:03;5.73;;;5.23;;
18140;SDS011;9196;49.194;12.526;2023-06-10T00:54:32;6.33;;;5.83;;
18140;SDS011;9196;49.194;12.526;2023-06-10T00:57:00;5.87;;;5.37;;
18140;SDS011;9196;49.194;12.526;2023-06-10T00:59:28;5.63;;;5.13;;
18140;SDS011;9196;49.194;12.526;2023-06-10T01:01:57;5.87;;;5.47;;
18140;SDS011;9196;49.194;12.526;2023-06-10T01:04:25;6.63;;;6.13;;
18140;SDS011;9196;49.194;12.526;2023-06-10T01:06:54;7.50;;;6.80;;
18140;SDS011;9196;49.194;12.526;2023-06-10T01:09:30;7.37;;;6.67;;
18140;SDS011;9196;49.194;12.526;2023-06-10T01:12:01;7.97;;;6.70;;
18140;SDS011;9196;49.194;12.526;2023-06-10T01:14:35;9.90;;;6.17;;
18140;SDS011;9196;49.194;12.526;2023-06-10T01:17:02;8.03;;;7.33;;
18140;SDS011;9196;49.194;12.526;2023-06-10T01:19:29;6.60;;;6.10;;
18140;SDS011;9196;49.194;12.526;2023-06-10T01:21:58;7.73;;;6.50;;
18140;SDS011;9196;49.194;12.526;2023-06-10T01:24:25;6.80;;;6.10;;
18140;SDS011;9196;49.194;12.526;2023-06-10T01:26:53;7.30;;;6.70;;
18140;SDS011;9196;49.194;12.526;2023-06-10T01:29:25;6.80;;;6.10;;
18140;SDS011;9196;49.194;12.526;2023-06-10T01:32:01;6.37;;;5.83;;
18140;SDS011;9196;49.194;12.526;2023-06-10T01:34:32;7.57;;;6.73;;
18140;SDS011;9196;49.194;12.526;2023-06-10T01:37:04;5.83;;;5.33;;
18140;SDS011;9196;49.194;12.526;2023-06-10T01:39:31;6.43;;;5.90;;
18140;SDS011;9196;49.194;12.526;2023-06-10T01:41:58;6.57;;;6.00;;
18140;SDS011;9196;49.194;12.526;2023-06-10T01:44:27;6.40;;;5.80;;
18140;SDS011;9196;49.194;12.526;2023-06-10T01:46:54;5.97;;;5.47;;
18140;SDS011;9196;49.194;12.526;2023-06-10T01:49:21;6.30;;;5.80;;
18140;SDS011;9196;49.194;12.526;2023-06-10T01:51:49;6.83;;;6.33;;
18140;SDS011;9196;49.194;12.526;2023-06-10T01:54:17;5.90;;;5.40;;
18140;SDS011;9196;49.194;12.526;2023-06-10T01:56:43;7.33;;;6.40;;
18140;SDS011;9196;49.194;12.526;2023-06-10T01:59:10;6.70;;;6.10;;
18140;SDS011;9196;49.194;12.526;2023-06-10T02:01:37;5.83;;;5.33;;
18140;SDS011;9196;49.194;12.526;2023-06-10T02:04:04;5.80;;;5.20;;
18140;SDS011;9196;49.194;12.526;2023-06-10T02:06:30;7.63;;;6.03;;
18140;SDS011;9196;49.194;12.526;2023-06-10T02:08:57;12.00;;;6.30;;
18140;SDS011;9196;49.194;12.526;2023-06-10T02:11:25;6.00;;;5.50;;
18140;SDS011;9196;49.194;12.526;2023-06-10T02:13:52;6.27;;;5.67;;
18140;SDS011;9196;49.194;12.526;2023-06-10T02:16:20;6.50;;;5.97;;
18140;SDS011;9196;49.194;12.526;2023-06-10T02:18:47;6.40;;;5.80;;
18140;SDS011;9196;49.194;12.526;2023-06-10T02:21:14;7.50;;;6.87;;
18140;SDS011;9196;49.194;12.526;2023-06-10T02:23:40;6.13;;;5.63;;
18140;SDS011;9196;49.194;12.526;2023-06-10T02:26:07;6.90;;;6.30;;
18140;SDS011;9196;49.194;12.526;2023-06-10T02:28:35;6.20;;;5.43;;
18140;SDS011;9196;49.194;12.526;2023-06-10T02:31:02;5.57;;;5.10;;
18140;SDS011;9196;49.194;12.526;2023-06-10T02:33:29;6.10;;;5.57;;
18140;SDS011;9196;49.194;12.526;2023-06-10T02:35:56;6.67;;;5.60;;
18140;SDS011;9196;49.194;12.526;2023-06-10T02:38:23;11.20;;;5.30;;
18140;SDS011;9196;49.194;12.526;2023-06-10T02:40:50;6.23;;;5.73;;
18140;SDS011;9196;49.194;12.526;2023-06-10T02:43:16;9.93;;;6.03;;
18140;SDS011;9196;49.194;12.526;2023-06-10T02:45:45;6.93;;;6.23;;
18140;SDS011;9196;49.194;12.526;2023-06-10T02:48:12;5.57;;;5.10;;
18140;SDS011;9196;49.194;12.526;2023-06-10T02:50:38;6.30;;;5.70;;
18140;SDS011;9196;49.194;12.526;2023-06-10T02:53:05;6.33;;;5.73;;
18140;SDS011;9196;49.194;12.526;2023-06-10T02:55:33;5.20;;;4.80;;
18140;SDS011;9196;49.194;12.526;2023-06-10T02:58:00;5.77;;;5.37;;
18140;SDS011;9196;49.194;12.526;2023-06-10T03:00:27;6.10;;;5.70;;
18140;SDS011;9196;49.194;12.526;2023-06-10T03:02:55;6.07;;;5.57;;
18140;SDS011;9196;49.194;12.526;2023-06-10T03:05:23;7.30;;;6.20;;
18140;SDS011;9196;49.194;12.526;2023-06-10T03:07:50;5.90;;;5.40;;
18140;SDS011;9196;49.194;12.526;2023-06-10T03:10:16;6.57;;;5.97;;
18140;SDS011;9196;49.194;12.526;2023-06-10T03:12:43;7.20;;;6.50;;
18140;SDS011;9196;49.194;12.526;2023-06-10T03:15:10;7.77;;;6.97;;
18140;SDS011;9196;49.194;12.526;2023-06-10T03:17:37;11.60;;;6.27;;
18140;SDS011;9196;49.194;12.526;2023-06-10T03:20:06;7.17;;;5.80;;
18140;SDS011;9196;49.194;12.526;2023-06-10T03:22:35;6.30;;;5.70;;
18140;SDS011;9196;49.194;12.526;2023-06-10T03:25:03;6.37;;;5.77;;
18140;SDS011;9196;49.194;12.526;2023-06-10T03:27:30;6.67;;;6.10;;
18140;SDS011;9196;49.194;12.526;2023-06-10T03:29:57;6.93;;;6.23;;
18140;SDS011;9196;49.194;12.526;2023-06-10T03:32:24;6.60;;;6.10;;
18140;SDS011;9196;49.194;12.526;2023-06-10T03:34:51;6.23;;;5.77;;
18140;SDS011;9196;49.194;12.526;2023-06-10T03:37:24;7.13;;;6.50;;
18140;SDS011;9196;49.194;12.526;2023-06-10T03:39:51;7.37;;;6.77;;
18140;SDS011;9196;49.194;12.526;2023-06-10T03:42:18;6.80;;;6.20;;
18140;SDS011;9196;49.194;12.526;2023-06-10T03:44:44;7.37;;;6.50;;
18140;SDS011;9196;49.194;12.526;2023-06-10T03:47:11;10.63;;;6.43;;
18140;SDS011;9196;49.194;12.526;2023-06-10T03:49:39;6.80;;;6.10;;
18140;SDS011;9196;49.194;12.526;2023-06-10T03:52:06;13.73;;;7.10;;
18140;SDS011;9196;49.194;12.526;2023-06-10T03:54:34;7.53;;;6.83;;
18140;SDS011;9196;49.194;12.526;2023-06-10T03:57:01;7.40;;;6.70;;
18140;SDS011;9196;49.194;12.526;2023-06-10T03:59:28;7.10;;;6.50;;
18140;SDS011;9196;49.194;12.526;2023-06-10T04:01:55;6.70;;;5.50;;
18140;SDS011;9196;49.194;12.526;2023-06-10T04:04:22;7.83;;;6.80;;
18140;SDS011;9196;49.194;12.526;2023-06-10T04:06:49;6.80;;;6.20;;
18140;SDS011;9196;49.194;12.526;2023-06-10T04:09:16;7.03;;;6.43;;
18140;SDS011;9196;49.194;12.526;2023-06-10T04:11:44;8.70;;;6.40;;
18140;SDS011;9196;49.194;12.526;2023-06-10T04:14:11;6.00;;;5.50;;
18140;SDS011;9196;49.194;12.526;2023-06-10T04:16:38;8.93;;;8.13;;
18140;SDS011;9196;49.194;12.526;2023-06-10T04:19:05;7.07;;;6.37;;
18140;SDS011;9196;49.194;12.526;2023-06-10T04:21:32;9.10;;;7.47;;
18140;SDS011;9196;49.194;12.526;2023-06-10T04:23:59;7.77;;;7.07;;
18140;SDS011;9196;49.194;12.526;2023-06-10T04:26:26;7.93;;;7.23;;
18140;SDS011;9196;49.194;12.526;2023-06-10T04:28:55;7.77;;;7.07;;
18140;SDS011;9196;49.194;12.526;2023-06-10T04:31:21;7.40;;;6.70;;
18140;SDS011;9196;49.194;12.526;2023-06-10T04:33:48;8.27;;;7.23;;
18140;SDS011;9196;49.194;12.526;2023-06-10T04:36:15;8.33;;;6.70;;
18140;SDS011;9196;49.194;12.526;2023-06-10T04:38:42;7.53;;;6.77;;
18140;SDS011;9196;49.194;12.526;2023-06-10T04:41:08;9.83;;;7.30;;
18140;SDS011;9196;49.194;12.526;2023-06-10T04:43:35;7.77;;;7.07;;
18140;SDS011;9196;49.194;12.526;2023-06-10T04:46:03;8.60;;;7.77;;
18140;SDS011;9196;49.194;12.526;2023-06-10T04:48:30;7.93;;;7.20;;
18140;SDS011;9196;49.194;12.526;2023-06-10T04:51:00;7.00;;;6.43;;
18140;SDS011;9196;49.194;12.526;2023-06-10T04:53:27;6.57;;;6.00;;
18140;SDS011;9196;49.194;12.526;2023-06-10T04:55:53;7.50;;;6.80;;
18140;SDS011;9196;49.194;12.526;2023-06-10T04:58:20;7.90;;;7.20;;
18140;SDS011;9196;49.194;12.526;2023-06-10T05:00:47;8.30;;;7.10;;
18140;SDS011;9196;49.194;12.526;2023-06-10T05:03:15;8.23;;;7.13;;
18140;SDS011;9196;49.194;12.526;2023-06-10T05:05:41;7.47;;;6.87;;
18140;SDS011;9196;49.194;12.526;2023-06-10T05:08:08;8.90;;;8.00;;
18140;SDS011;9196;49.194;12.526;2023-06-10T05:10:35;7.93;;;7.17;;
18140;SDS011;9196;49.194;12.526;2023-06-10T05:13:02;8.00;;;7.30;;
18140;SDS011;9196;49.194;12.526;2023-06-10T05:15:29;8.23;;;7.30;;
18140;SDS011;9196;49.194;12.526;2023-06-10T05:17:56;8.30;;;7.60;;
18140;SDS011;9196;49.194;12.526;2023-06-10T05:20:24;8.63;;;7.80;;
18140;SDS011;9196;49.194;12.526;2023-06-10T05:22:53;7.60;;;6.90;;
18140;SDS011;9196;49.194;12.526;2023-06-10T05:25:20;7.57;;;6.87;;
18140;SDS011;9196;49.194;12.526;2023-06-10T05:27:47;8.13;;;7.20;;
18140;SDS011;9196;49.194;12.526;2023-06-10T05:30:13;9.67;;;7.73;;
18140;SDS011;9196;49.194;12.526;2023-06-10T05:32:42;7.80;;;7.10;;
18140;SDS011;9196;49.194;12.526;2023-06-10T05:35:08;7.60;;;6.97;;
18140;SDS011;9196;49.194;12.526;2023-06-10T05:37:37;9.10;;;8.20;;
18140;SDS011;9196;49.194;12.526;2023-06-10T05:40:04;7.93;;;7.23;;
18140;SDS011;9196;49.194;12.526;2023-06-10T05:42:31;7.93;;;7.13;;
18140;SDS011;9196;49.194;12.526;2023-06-10T05:44:58;9.33;;;8.43;;
18140;SDS011;9196;49.194;12.526;2023-06-10T05:47:25;8.70;;;7.77;;
18140;SDS011;9196;49.194;12.526;2023-06-10T05:49:52;9.13;;;8.30;;
18140;SDS011;9196;49.194;12.526;2023-06-10T05:52:18;7.77;;;7.13;;
18140;SDS011;9196;49.194;12.526;2023-06-10T05:54:47;8.03;;;7.33;;
18140;SDS011;9196;49.194;12.526;2023-06-10T05:57:15;8.00;;;7.20;;
18140;SDS011;9196;49.194;12.526;2023-06-10T05:59:41;7.97;;;6.60;;
18140;SDS011;9196;49.194;12.526;2023-06-10T06:02:08;8.30;;;7.60;;
18140;SDS011;9196;49.194;12.526;2023-06-10T06:04:35;11.13;;;7.23;;
18140;SDS011;9196;49.194;12.526;2023-06-10T06:07:02;8.90;;;8.03;;
18140;SDS011;9196;49.194;12.526;2023-06-10T06:09:29;8.33;;;7.53;;
18140;SDS011;9196;49.194;12.526;2023-06-10T06:11:58;14.53;;;7.73;;
18140;SDS011;9196;49.194;12.526;2023-06-10T06:14:25;7.57;;;6.97;;
18140;SDS011;9196;49.194;12.526;2023-06-10T06:16:51;7.63;;;6.93;;
18140;SDS011;9196;49.194;12.526;2023-06-10T06:19:18;8.13;;;7.43;;
18140;SDS011;9196;49.194;12.526;2023-06-10T06:21:45;7.77;;;6.97;;
18140;SDS011;9196;49.194;12.526;2023-06-10T06:24:12;7.27;;;6.67;;
18140;SDS011;9196;49.194;12.526;2023-06-10T06:26:40;9.53;;;7.47;;
18140;SDS011;9196;49.194;12.526;2023-06-10T06:29:08;8.57;;;7.83;;
18140;SDS011;9196;49.194;12.526;2023-06-10T06:31:34;9.33;;;8.17;;
18140;SDS011;9196;49.194;12.526;2023-06-10T06:34:01;9.03;;;8.20;;
18140;SDS011;9196;49.194;12.526;2023-06-10T06:36:28;8.27;;;7.57;;
18140;SDS011;9196;49.194;12.526;2023-06-10T06:38:55;8.00;;;7.20;;
18140;SDS011;9196;49.194;12.526;2023-06-10T06:41:23;8.00;;;7.23;;
18140;SDS011;9196;49.194;12.526;2023-06-10T06:43:50;7.27;;;6.57;;
18140;SDS011;9196;49.194;12.526;2023-06-10T06:46:18;7.13;;;6.53;;
18140;SDS011;9196;49.194;12.526;2023-06-10T06:48:46;6.50;;;6.00;;
18140;SDS011;9196;49.194;12.526;2023-06-10T06:51:13;7.23;;;6.53;;
18140;SDS011;9196;49.194;12.526;2023-06-10T06:53:39;6.23;;;5.63;;
18140;SDS011;9196;49.194;12.526;2023-06-10T06:56:09;7.30;;;6.60;;
18140;SDS011;9196;49.194;12.526;2023-06-10T06:58:36;9.47;;;7.10;;
18140;SDS011;9196;49.194;12.526;2023-06-10T07:01:03;6.67;;;6.17;;
18140;SDS011;9196;49.194;12.526;2023-06-10T07:03:31;6.67;;;6.10;;
18140;SDS011;9196;49.194;12.526;2023-06-10T07:05:57;7.27;;;6.60;;
18140;SDS011;9196;49.194;12.526;2023-06-10T07:08:24;6.70;;;6.20;;
18140;SDS011;9196;49.194;12.526;2023-06-10T07:10:51;6.47;;;5.93;;
18140;SDS011;9196;49.194;12.526;2023-06-10T07:13:18;6.90;;;6.40;;
18140;SDS011;9196;49.194;12.526;2023-06-10T07:15:45;8.57;;;6.30;;
18140;SDS011;9196;49.194;12.526;2023-06-10T07:18:12;7.73;;;7.07;;
18140;SDS011;9196;49.194;12.526;2023-06-10T07:20:42;6.73;;;6.23;;
18140;SDS011;9196;49.194;12.526;2023-06-10T07:23:09;7.60;;;7.00;;
18140;SDS011;9196;49.194;12.526;2023-06-10T07:25:36;7.37;;;6.77;;
18140;SDS011;9196;49.194;12.526;2023-06-10T07:28:03;6.87;;;6.27;;
18140;SDS011;9196;49.194;12.526;2023-06-10T07:30:30;6.87;;;6.27;;
18140;SDS011;9196;49.194;12.526;2023-06-10T07:32:56;6.70;;;6.10;;
18140;SDS011;9196;49.194;12.526;2023-06-10T07:35:23;7.30;;;6.60;;
18140;SDS011;9196;49.194;12.526;2023-06-10T07:37:51;6.73;;;6.23;;
18140;SDS011;9196;49.194;12.526;2023-06-10T07:40:18;6.03;;;5.50;;
18140;SDS011;9196;49.194;12.526;2023-06-10T07:42:45;6.50;;;5.90;;
18140;SDS011;9196;49.194;12.526;2023-06-10T07:45:11;6.33;;;5.83;;
18140;SDS011;9196;49.194;12.526;2023-06-10T07:47:38;6.60;;;6.10;;
18140;SDS011;9196;49.194;12.526;2023-06-10T07:50:05;9.90;;;5.97;;
18140;SDS011;9196;49.194;12.526;2023-06-10T07:52:32;6.23;;;5.63;;
18140;SDS011;9196;49.194;12.526;2023-06-10T07:55:00;6.70;;;5.30;;
18140;SDS011;9196;49.194;12.526;2023-06-10T07:57:28;5.53;;;5.13;;
18140;SDS011;9196;49.194;12.526;2023-06-10T07:59:56;6.07;;;5.57;;
18140;SDS011;9196;49.194;12.526;2023-06-10T08:02:25;6.53;;;5.03;;
18140;SDS011;9196;49.194;12.526;2023-06-10T08:04:51;5.60;;;5.10;;
18140;SDS011;9196;49.194;12.526;2023-06-10T08:07:18;5.67;;;5.20;;
18140;SDS011;9196;49.194;12.526;2023-06-10T08:09:45;5.53;;;5.03;;
18140;SDS011;9196;49.194;12.526;2023-06-10T08:12:13;9.93;;;5.53;;
18140;SDS011;9196;49.194;12.526;2023-06-10T08:14:40;5.57;;;5.07;;
18140;SDS011;9196;49.194;12.526;2023-06-10T08:17:07;5.70;;;5.30;;
18140;SDS011;9196;49.194;12.526;2023-06-10T08:19:33;6.40;;;5.90;;
18140;SDS011;9196;49.194;12.526;2023-06-10T08:22:00;10.53;;;5.40;;
18140;SDS011;9196;49.194;12.526;2023-06-10T08:24:27;8.30;;;6.23;;
18140;SDS011;9196;49.194;12.526;2023-06-10T08:26:54;7.60;;;6.40;;
18140;SDS011;9196;49.194;12.526;2023-06-10T08:29:23;10.80;;;5.80;;
18140;SDS011;9196;49.194;12.526;2023-06-10T08:31:50;6.37;;;5.87;;
18140;SDS011;9196;49.194;12.526;2023-06-10T08:34:16;6.40;;;5.90;;
18140;SDS011;9196;49.194;12.526;2023-06-10T08:36:43;11.53;;;6.90;;
18140;SDS011;9196;49.194;12.526;2023-06-10T08:39:10;7.67;;;6.97;;
18140;SDS011;9196;49.194;12.526;2023-06-10T08:41:39;7.00;;;6.40;;
18140;SDS011;9196;49.194;12.526;2023-06-10T08:44:10;7.13;;;6.50;;
18140;SDS011;9196;49.194;12.526;2023-06-10T08:46:46;7.97;;;7.27;;
18140;SDS011;9196;49.194;12.526;2023-06-10T08:49:14;6.87;;;6.37;;
18140;SDS011;9196;49.194;12.526;2023-06-10T08:51:45;8.40;;;7.13;;
18140;SDS011;9196;49.194;12.526;2023-06-10T08:54:17;7.67;;;7.00;;
18140;SDS011;9196;49.194;12.526;2023-06-10T08:56:48;7.40;;;6.70;;
18140;SDS011;9196;49.194;12.526;2023-06-10T08:59:16;8.20;;;7.50;;
18140;SDS011;9196;49.194;12.526;2023-06-10T09:01:43;8.37;;;7.57;;
18140;SDS011;9196;49.194;12.526;2023-06-10T09:04:12;8.13;;;7.43;;
18140;SDS011;9196;49.194;12.526;2023-06-10T09:06:41;8.00;;;7.30;;
18140;SDS011;9196;49.194;12.526;2023-06-10T09:09:08;8.73;;;7.93;;
18140;SDS011;9196;49.194;12.526;2023-06-10T09:11:35;9.33;;;8.30;;
18140;SDS011;9196;49.194;12.526;2023-06-10T09:14:04;12.60;;;7.30;;
18140;SDS011;9196;49.194;12.526;2023-06-10T09:16:30;7.97;;;7.37;;
18140;SDS011;9196;49.194;12.526;2023-06-10T09:18:58;8.97;;;8.07;;
18140;SDS011;9196;49.194;12.526;2023-06-10T09:21:25;8.30;;;7.60;;
18140;SDS011;9196;49.194;12.526;2023-06-10T09:23:52;7.30;;;6.60;;
18140;SDS011;9196;49.194;12.526;2023-06-10T09:26:19;7.40;;;6.80;;
18140;SDS011;9196;49.194;12.526;2023-06-10T09:28:47;7.73;;;7.13;;
18140;SDS011;9196;49.194;12.526;2023-06-10T09:31:15;8.30;;;7.53;;
18140;SDS011;9196;49.194;12.526;2023-06-10T09:33:43;9.33;;;7.00;;
18140;SDS011;9196;49.194;12.526;2023-06-10T09:36:12;7.03;;;6.43;;
18140;SDS011;9196;49.194;12.526;2023-06-10T09:38:49;7.33;;;6.73;;
18140;SDS011;9196;49.194;12.526;2023-06-10T09:41:16;7.13;;;6.53;;
18140;SDS011;9196;49.194;12.526;2023-06-10T09:43:43;7.30;;;6.60;;
18140;SDS011;9196;49.194;12.526;2023-06-10T09:46:14;6.90;;;6.40;;
18140;SDS011;9196;49.194;12.526;2023-06-10T09:48:42;7.80;;;7.20;;
18140;SDS011;9196;49.194;12.526;2023-06-10T09:51:11;7.20;;;6.50;;
18140;SDS011;9196;49.194;12.526;2023-06-10T09:53:39;9.03;;;6.30;;
18140;SDS011;9196;49.194;12.526;2023-06-10T09:56:06;7.10;;;5.73;;
18140;SDS011;9196;49.194;12.526;2023-06-10T09:58:33;5.83;;;5.33;;
18140;SDS011;9196;49.194;12.526;2023-06-10T10:01:04;6.10;;;5.37;;
18140;SDS011;9196;49.194;12.526;2023-06-10T10:03:32;6.93;;;6.40;;
18140;SDS011;9196;49.194;12.526;2023-06-10T10:05:59;5.53;;;5.13;;
18140;SDS011;9196;49.194;12.526;2023-06-10T10:08:28;4.37;;;4.07;;
18140;SDS011;9196;49.194;12.526;2023-06-10T10:10:56;5.00;;;4.70;;
18140;SDS011;9196;49.194;12.526;2023-06-10T10:13:24;4.70;;;4.30;;
18140;SDS011;9196;49.194;12.526;2023-06-10T10:15:53;4.20;;;3.90;;
18140;SDS011;9196;49.194;12.526;2023-06-10T10:18:21;5.07;;;4.43;;
18140;SDS011;9196;49.194;12.526;2023-06-10T10:20:53;4.13;;;3.90;;
18140;SDS011;9196;49.194;12.526;2023-06-10T10:23:21;4.07;;;3.87;;
18140;SDS011;9196;49.194;12.526;2023-06-10T10:25:56;4.20;;;3.80;;
18140;SDS011;9196;49.194;12.526;2023-06-10T10:28:26;5.10;;;4.20;;
18140;SDS011;9196;49.194;12.526;2023-06-10T10:31:05;3.77;;;3.57;;
18140;SDS011;9196;49.194;12.526;2023-06-10T10:33:39;3.80;;;3.60;;
18140;SDS011;9196;49.194;12.526;2023-06-10T10:36:11;4.57;;;4.20;;
18140;SDS011;9196;49.194;12.526;2023-06-10T10:38:39;4.13;;;3.83;;
18140;SDS011;9196;49.194;12.526;2023-06-10T10:41:07;8.30;;;4.43;;
18140;SDS011;9196;49.194;12.526;2023-06-10T10:43:35;7.97;;;3.83;;
18140;SDS011;9196;49.194;12.526;2023-06-10T10:46:11;4.30;;;4.00;;
18140;SDS011;9196;49.194;12.526;2023-06-10T10:48:39;3.93;;;3.73;;
18140;SDS011;9196;49.194;12.526;2023-06-10T10:51:07;3.80;;;3.50;;
18140;SDS011;9196;49.194;12.526;2023-06-10T10:53:34;4.20;;;3.90;;
18140;SDS011;9196;49.194;12.526;2023-06-10T10:56:04;3.50;;;3.30;;
18140;SDS011;9196;49.194;12.526;2023-06-10T10:58:33;3.00;;;2.90;;
18140;SDS011;9196;49.194;12.526;2023-06-10T11:01:07;3.67;;;3.47;;
18140;SDS011;9196;49.194;12.526;2023-06-10T11:03:41;3.90;;;3.60;;
18140;SDS011;9196;49.194;12.526;2023-06-10T11:06:12;5.90;;;4.20;;
18140;SDS011;9196;49.194;12.526;2023-06-10T11:08:46;3.63;;;3.43;;
18140;SDS011;9196;49.194;12.526;2023-06-10T11:11:18;5.33;;;3.90;;
18140;SDS011;9196;49.194;12.526;2023-06-10T11:13:58;4.10;;;3.80;;
18140;SDS011;9196;49.194;12.526;2023-06-10T11:16:38;3.70;;;3.50;;
18140;SDS011;9196;49.194;12.526;2023-06-10T11:19:06;3.30;;;3.10;;
18140;SDS011;9196;49.194;12.526;2023-06-10T11:21:36;3.60;;;3.40;;
18140;SDS011;9196;49.194;12.526;2023-06-10T11:24:23;4.20;;;3.83;;
18140;SDS011;9196;49.194;12.526;2023-06-10T11:26:51;3.70;;;3.47;;
18140;SDS011;9196;49.194;12.526;2023-06-10T11:29:19;3.50;;;2.80;;
18140;SDS011;9196;49.194;12.526;2023-06-10T11:31:49;4.00;;;3.70;;
18140;SDS011;9196;49.194;12.526;2023-06-10T11:34:22;3.50;;;3.30;;
18140;SDS011;9196;49.194;12.526;2023-06-10T11:36:52;3.90;;;3.60;;
18140;SDS011;9196;49.194;12.526;2023-06-10T11:39:19;3.23;;;3.00;;
18140;SDS011;9196;49.194;12.526;2023-06-10T11:41:48;2.63;;;2.53;;
18140;SDS011;9196;49.194;12.526;2023-06-10T11:44:16;2.83;;;2.73;;
18140;SDS011;9196;49.194;12.526;2023-06-10T11:46:45;2.63;;;2.53;;
18140;SDS011;9196;49.194;12.526;2023-06-10T11:49:14;2.70;;;2.50;;
18140;SDS011;9196;49.194;12.526;2023-06-10T11:51:41;2.60;;;2.50;;
18140;SDS011;9196;49.194;12.526;2023-06-10T11:54:14;2.60;;;2.50;;
18140;SDS011;9196;49.194;12.526;2023-06-10T11:56:42;3.23;;;3.03;;
18140;SDS011;9196;49.194;12.526;2023-06-10T11:59:09;3.43;;;3.23;;
18140;SDS011;9196;49.194;12.526;2023-06-10T12:01:37;2.70;;;2.60;;
18140;SDS011;9196;49.194;12.526;2023-06-10T12:04:08;3.33;;;3.17;;
18140;SDS011;9196;49.194;12.526;2023-06-10T12:06:39;2.53;;;2.43;;
18140;SDS011;9196;49.194;12.526;2023-06-10T12:09:12;3.03;;;2.93;;
18140;SDS011;9196;49.194;12.526;2023-06-10T12:11:50;3.70;;;3.40;;
18140;SDS011;9196;49.194;12.526;2023-06-10T12:17:19;3.93;;;3.70;;
18140;SDS011;9196;49.194;12.526;2023-06-10T12:19:48;3.67;;;3.40;;
18140;SDS011;9196;49.194;12.526;2023-06-10T12:22:15;4.57;;;4.27;;
18140;SDS011;9196;49.194;12.526;2023-06-10T12:24:44;3.50;;;3.30;;
18140;SDS011;9196;49.194;12.526;2023-06-10T12:27:11;3.97;;;3.13;;
18140;SDS011;9196;49.194;12.526;2023-06-10T12:29:39;3.33;;;3.13;;
18140;SDS011;9196;49.194;12.526;2023-06-10T12:32:16;3.93;;;3.63;;
18140;SDS011;9196;49.194;12.526;2023-06-10T12:34:45;4.73;;;4.23;;
18140;SDS011;9196;49.194;12.526;2023-06-10T12:37:12;3.47;;;2.90;;
18140;SDS011;9196;49.194;12.526;2023-06-10T12:39:40;3.13;;;2.73;;
18140;SDS011;9196;49.194;12.526;2023-06-10T12:42:08;2.33;;;2.23;;
18140;SDS011;9196;49.194;12.526;2023-06-10T12:44:38;3.30;;;3.20;;
18140;SDS011;9196;49.194;12.526;2023-06-10T12:47:09;3.00;;;2.90;;
18140;SDS011;9196;49.194;12.526;2023-06-10T12:49:37;2.90;;;2.70;;
18140;SDS011;9196;49.194;12.526;2023-06-10T12:52:06;3.03;;;2.90;;
18140;SDS011;9196;49.194;12.526;2023-06-10T12:54:33;3.10;;;3.00;;
18140;SDS011;9196;49.194;12.526;2023-06-10T12:57:01;2.63;;;2.53;;
18140;SDS011;9196;49.194;12.526;2023-06-10T12:59:28;3.50;;;3.30;;
18140;SDS011;9196;49.194;12.526;2023-06-10T13:01:56;3.43;;;3.23;;
18140;SDS011;9196;49.194;12.526;2023-06-10T13:04:23;3.23;;;3.03;;
18140;SDS011;9196;49.194;12.526;2023-06-10T13:06:50;3.50;;;3.30;;
18140;SDS011;9196;49.194;12.526;2023-06-10T13:09:18;4.40;;;3.37;;
18140;SDS011;9196;49.194;12.526;2023-06-10T13:11:45;4.13;;;3.83;;
18140;SDS011;9196;49.194;12.526;2023-06-10T13:14:12;4.80;;;4.20;;
18140;SDS011;9196;49.194;12.526;2023-06-10T13:16:38;3.43;;;3.23;;
18140;SDS011;9196;49.194;12.526;2023-06-10T13:19:05;4.13;;;3.83;;
18140;SDS011;9196;49.194;12.526;2023-06-10T13:21:32;4.47;;;4.07;;
18140;SDS011;9196;49.194;12.526;2023-06-10T13:23:59;4.87;;;4.50;;
18140;SDS011;9196;49.194;12.526;2023-06-10T13:26:28;4.57;;;4.17;;
18140;SDS011;9196;49.194;12.526;2023-06-10T13:28:54;5.07;;;4.57;;
18140;SDS011;9196;49.194;12.526;2023-06-10T13:31:22;5.57;;;5.10;;
18140;SDS011;9196;49.194;12.526;2023-06-10T13:33:49;6.00;;;5.50;;
18140;SDS011;9196;49.194;12.526;2023-06-10T13:36:16;5.73;;;5.23;;
18140;SDS011;9196;49.194;12.526;2023-06-10T13:38:42;6.60;;;5.00;;
18140;SDS011;9196;49.194;12.526;2023-06-10T13:41:10;6.87;;;6.27;;
18140;SDS011;9196;49.194;12.526;2023-06-10T13:43:38;5.50;;;5.10;;
18140;SDS011;9196;49.194;12.526;2023-06-10T13:46:05;7.80;;;5.97;;
18140;SDS011;9196;49.194;12.526;2023-06-10T13:48:32;7.00;;;6.43;;
18140;SDS011;9196;49.194;12.526;2023-06-10T13:51:00;5.90;;;5.40;;
18140;SDS011;9196;49.194;12.526;2023-06-10T13:53:27;6.47;;;5.87;;
18140;SDS011;9196;49.194;12.526;2023-06-10T13:55:53;8.27;;;6.03;;
18140;SDS011;9196;49.194;12.526;2023-06-10T13:58:20;7.40;;;6.17;;
18140;SDS011;9196;49.194;12.526;2023-06-10T14:00:48;7.93;;;6.63;;
18140;SDS011;9196;49.194;12.526;2023-06-10T14:03:15;6.87;;;6.23;;
18140;SDS011;9196;49.194;12.526;2023-06-10T14:05:42;11.70;;;6.50;;
18140;SDS011;9196;49.194;12.526;2023-06-10T14:08:09;8.53;;;6.87;;
18140;SDS011;9196;49.194;12.526;2023-06-10T14:10:35;6.87;;;6.27;;
18140;SDS011;9196;49.194;12.526;2023-06-10T14:13:02;7.90;;;6.77;;
18140;SDS011;9196;49.194;12.526;2023-06-10T14:15:30;6.27;;;5.80;;
18140;SDS011;9196;49.194;12.526;2023-06-10T14:17:58;9.83;;;7.20;;
18140;SDS011;9196;49.194;12.526;2023-06-10T14:20:25;6.50;;;6.10;;
18140;SDS011;9196;49.194;12.526;2023-06-10T14:22:56;8.77;;;7.20;;
18140;SDS011;9196;49.194;12.526;2023-06-10T14:25:23;6.63;;;6.10;;
18140;SDS011;9196;49.194;12.526;2023-06-10T14:27:50;6.37;;;5.63;;
18140;SDS011;9196;49.194;12.526;2023-06-10T14:30:17;6.70;;;5.20;;
18140;SDS011;9196;49.194;12.526;2023-06-10T14:32:43;5.37;;;4.87;;
18140;SDS011;9196;49.194;12.526;2023-06-10T14:35:11;5.70;;;4.67;;
18140;SDS011;9196;49.194;12.526;2023-06-10T14:37:38;5.93;;;5.33;;
18140;SDS011;9196;49.194;12.526;2023-06-10T14:40:05;4.63;;;4.33;;
18140;SDS011;9196;49.194;12.526;2023-06-10T14:42:33;8.10;;;4.80;;
18140;SDS011;9196;49.194;12.526;2023-06-10T14:44:59;6.40;;;4.00;;
18140;SDS011;9196;49.194;12.526;2023-06-10T14:47:26;5.97;;;4.70;;
18140;SDS011;9196;49.194;12.526;2023-06-10T14:49:53;6.23;;;5.00;;
18140;SDS011;9196;49.194;12.526;2023-06-10T14:52:21;4.47;;;4.07;;
18140;SDS011;9196;49.194;12.526;2023-06-10T14:54:48;4.87;;;4.57;;